createdAt,value
2023-05-12T00:03:01.048Z,407.15789
2023-05-12T00:08:02.561Z,489.13274
2023-05-12T00:13:04.009Z,461.64706
2023-05-12T00:18:05.776Z,448.91803
2023-05-12T00:23:07.250Z,436.8
2023-05-12T00:28:08.742Z,504
2023-05-12T00:33:10.237Z,479.65217
2023-05-12T00:38:11.647Z,453.09091
2023-05-12T00:43:13.058Z,400.2963
2023-05-12T00:48:14.462Z,407.15789
2023-05-12T00:53:15.852Z,400.2963
2023-05-12T00:58:17.385Z,403.70149
2023-05-12T01:03:18.933Z,393.63504
2023-05-12T01:08:20.452Z,371.77778
2023-05-12T01:13:21.821Z,374.76923
2023-05-12T01:18:23.368Z,329
2023-05-12T01:23:24.879Z,344
2023-05-12T01:28:26.341Z,336.35669
2023-05-12T01:33:27.772Z,329
2023-05-12T01:38:29.259Z,363.04762
2023-05-12T01:43:30.653Z,365.91781
2023-05-12T01:48:32.047Z,326.6087
2023-05-12T01:53:33.502Z,346.61438
2023-05-12T01:58:35.033Z,341.41935
2023-05-12T02:03:36.706Z,341.41935
2023-05-12T02:08:38.257Z,315.08434
2023-05-12T02:13:39.703Z,321.91411
2023-05-12T02:18:41.159Z,331.42138
2023-05-12T02:23:42.675Z,338.87179
2023-05-12T02:28:44.118Z,315.08434
2023-05-12T02:33:45.672Z,306.35294
2023-05-12T02:38:47.144Z,317.33333
2023-05-12T02:43:48.752Z,336.35669
2023-05-12T02:48:50.175Z,346.61438
2023-05-12T02:53:51.552Z,312.86228
2023-05-12T02:58:53.171Z,298.02299
2023-05-12T03:03:54.658Z,333.87342
2023-05-12T03:08:56.076Z,319.60976
2023-05-12T03:13:57.480Z,310.66667
2023-05-12T03:18:58.932Z,319.60976
2023-05-12T03:24:00.377Z,315.08434
2023-05-12T03:29:01.801Z,296
2023-05-12T03:34:03.246Z,298.02299
2023-05-12T03:39:04.638Z,296
2023-05-12T03:44:06.031Z,315.08434
2023-05-12T03:49:07.448Z,302.13953
2023-05-12T03:54:08.853Z,312.86228
2023-05-12T03:59:10.275Z,312.86228
2023-05-12T04:04:11.745Z,292.0226
2023-05-12T04:09:13.266Z,317.33333
2023-05-12T04:14:14.851Z,300.06936
2023-05-12T04:19:16.226Z,308.49704
2023-05-12T04:24:17.617Z,336.35669
2023-05-12T04:29:19.005Z,344
2023-05-12T04:34:20.407Z,329
2023-05-12T04:39:21.837Z,306.35294
2023-05-12T04:44:23.213Z,310.66667
2023-05-12T04:49:24.601Z,308.49704
2023-05-12T04:54:26.072Z,302.13953
2023-05-12T04:59:27.464Z,321.91411
2023-05-12T05:04:28.885Z,310.66667
2023-05-12T05:09:30.297Z,321.91411
2023-05-12T05:14:32.275Z,312.86228
2023-05-12T05:19:43.902Z,300.06936
2023-05-12T05:24:53.834Z,300.06936
2023-05-12T05:29:55.255Z,304.23392
2023-05-12T05:34:56.876Z,312.86228
2023-05-12T05:39:58.351Z,317.33333
2023-05-12T05:44:59.745Z,317.33333
2023-05-12T05:50:01.315Z,319.60976
2023-05-12T05:55:02.663Z,315.08434
2023-05-12T06:00:04.048Z,317.33333
2023-05-12T06:05:05.444Z,310.66667
2023-05-12T06:10:06.913Z,319.60976
2023-05-12T06:15:08.317Z,317.33333
2023-05-12T06:20:09.719Z,312.86228
2023-05-12T06:25:11.109Z,338.87179
2023-05-12T06:30:14.946Z,324.24691
2023-05-12T06:35:28.225Z,317.33333
2023-05-12T06:40:29.606Z,310.66667
2023-05-12T06:45:30.999Z,324.24691
2023-05-12T06:50:43.338Z,331.42138
2023-05-12T06:55:44.723Z,329
2023-05-12T07:00:46.132Z,324.24691
2023-05-12T07:05:47.576Z,319.60976
2023-05-12T07:10:48.983Z,321.91411
2023-05-12T07:15:50.410Z,315.08434
2023-05-12T07:20:51.860Z,324.24691
2023-05-12T07:25:53.234Z,312.86228
2023-05-12T07:30:54.668Z,321.91411
2023-05-12T07:35:56.094Z,317.33333
2023-05-12T07:40:58.123Z,319.60976
2023-05-12T07:45:59.534Z,315.08434
2023-05-12T07:51:01.268Z,321.91411
2023-05-12T07:56:02.744Z,310.66667
2023-05-12T08:01:04.322Z,312.86228
2023-05-12T08:06:05.772Z,315.08434
2023-05-12T08:11:07.167Z,315.08434
2023-05-12T08:16:08.582Z,317.33333
2023-05-12T08:21:09.997Z,312.86228
2023-05-12T08:26:11.375Z,317.33333
2023-05-12T08:31:12.891Z,315.08434
2023-05-12T08:36:14.375Z,310.66667
2023-05-12T08:41:15.770Z,319.60976
2023-05-12T08:46:17.177Z,321.91411
2023-05-12T08:51:18.541Z,315.08434
2023-05-12T09:01:24.458Z,312.86228
2023-05-12T09:06:25.910Z,315.08434
2023-05-12T09:11:27.294Z,317.33333
2023-05-12T09:16:28.761Z,315.08434
2023-05-12T09:21:30.161Z,312.86228
2023-05-12T09:26:31.566Z,315.08434
2023-05-12T09:31:32.983Z,319.60976
2023-05-12T09:36:34.513Z,317.33333
2023-05-12T09:41:35.949Z,319.60976
2023-05-12T09:46:37.353Z,317.33333
2023-05-12T09:51:38.661Z,321.91411
2023-05-12T09:56:40.002Z,326.6087
2023-05-12T10:01:41.512Z,333.87342
2023-05-12T10:06:42.909Z,312.86228
2023-05-12T10:11:44.352Z,324.24691
2023-05-12T10:16:45.834Z,336.35669
2023-05-12T10:21:47.286Z,326.6087
2023-05-12T10:26:48.687Z,329
2023-05-12T10:31:50.273Z,319.60976
2023-05-12T10:36:51.781Z,321.91411
2023-05-12T10:41:53.183Z,324.24691
2023-05-12T10:46:54.591Z,333.87342
2023-05-12T10:51:55.998Z,336.35669
2023-05-12T10:56:57.567Z,341.41935
2023-05-12T11:02:00.042Z,331.42138
2023-05-12T11:07:02.964Z,333.87342
2023-05-12T11:12:04.942Z,331.42138
2023-05-12T11:17:06.370Z,331.42138
2023-05-12T11:22:07.789Z,333.87342
2023-05-12T11:27:09.163Z,333.87342
2023-05-12T11:32:10.765Z,338.87179
2023-05-12T11:37:12.183Z,336.35669
2023-05-12T11:42:14.658Z,338.87179
2023-05-12T11:47:17.228Z,331.42138
2023-05-12T11:52:18.683Z,333.87342
2023-05-12T11:57:20.113Z,331.42138
2023-05-12T12:02:32.114Z,336.35669
2023-05-12T12:07:33.590Z,336.35669
2023-05-12T12:12:35.119Z,329
2023-05-12T12:17:36.603Z,324.24691
2023-05-12T12:22:38.076Z,321.91411
2023-05-12T12:27:39.524Z,308.49704
2023-05-12T12:32:40.974Z,315.08434
2023-05-12T12:37:42.548Z,319.60976
2023-05-12T12:42:44.033Z,319.60976
2023-05-12T12:47:45.496Z,333.87342
2023-05-12T12:52:46.924Z,326.6087
2023-05-12T12:57:48.363Z,324.24691
2023-05-12T13:02:49.974Z,321.91411
2023-05-12T13:07:51.514Z,326.6087
2023-05-12T13:12:52.965Z,317.33333
2023-05-12T13:17:54.626Z,324.24691
2023-05-12T13:22:56.041Z,321.91411
2023-05-12T13:27:57.426Z,319.60976
2023-05-12T13:32:58.892Z,317.33333
2023-05-12T13:38:00.359Z,319.60976
2023-05-12T13:43:01.912Z,319.60976
2023-05-12T13:48:03.336Z,321.91411
2023-05-12T13:53:04.781Z,324.24691
2023-05-12T13:58:06.171Z,326.6087
2023-05-12T14:03:07.640Z,326.6087
2023-05-12T14:08:09.176Z,326.6087
2023-05-12T14:13:10.581Z,321.91411
2023-05-12T14:18:12.895Z,315.08434
2023-05-12T14:23:15.664Z,321.91411
2023-05-12T14:28:17.145Z,329
2023-05-12T14:33:18.584Z,331.42138
2023-05-12T14:38:20.006Z,336.35669
2023-05-12T14:43:21.437Z,331.42138
2023-05-12T14:48:22.853Z,326.6087
2023-05-12T14:53:24.316Z,324.24691
2023-05-12T14:58:25.768Z,331.42138
2023-05-12T15:03:27.226Z,336.35669
2023-05-12T15:08:28.743Z,331.42138
2023-05-12T15:13:30.143Z,333.87342
2023-05-12T15:18:31.604Z,333.87342
2023-05-12T15:23:33.078Z,329
2023-05-12T15:28:34.530Z,324.24691
2023-05-12T15:33:35.904Z,336.35669
2023-05-12T15:38:37.341Z,333.87342
2023-05-12T15:43:38.753Z,341.41935
2023-05-12T15:48:40.206Z,333.87342
2023-05-12T15:53:41.599Z,338.87179
2023-05-12T15:58:42.994Z,336.35669
2023-05-12T16:03:44.465Z,333.87342
2023-05-12T16:08:45.901Z,349.26316
2023-05-12T16:13:47.323Z,346.61438
2023-05-12T16:18:48.742Z,346.61438
2023-05-12T16:23:50.162Z,346.61438
2023-05-12T16:28:51.545Z,360.21622
2023-05-12T16:33:52.994Z,336.35669
2023-05-12T16:38:54.396Z,331.42138
2023-05-12T16:43:55.937Z,333.87342
2023-05-12T16:48:57.400Z,336.35669
2023-05-12T16:53:58.771Z,336.35669
2023-05-12T16:59:00.172Z,336.35669
2023-05-12T17:04:01.850Z,354.66667
2023-05-12T17:09:03.397Z,329
2023-05-12T17:14:04.789Z,331.42138
2023-05-12T17:24:10.597Z,333.87342
2023-05-12T17:29:11.993Z,333.87342
2023-05-12T17:34:13.418Z,333.87342
2023-05-12T17:39:14.852Z,331.42138
2023-05-12T17:44:16.250Z,319.60976
2023-05-12T17:49:17.672Z,317.33333
2023-05-12T17:54:19.158Z,308.49704
2023-05-12T17:59:20.515Z,315.08434
2023-05-12T18:04:21.921Z,312.86228
2023-05-12T18:09:23.322Z,333.87342
2023-05-12T18:14:24.725Z,321.91411
2023-05-12T18:19:26.189Z,326.6087
2023-05-12T18:24:27.622Z,336.35669
2023-05-12T18:29:29.024Z,336.35669
2023-05-12T18:34:30.459Z,304.23392
2023-05-12T18:39:31.842Z,310.66667
2023-05-12T18:44:33.237Z,312.86228
2023-05-12T18:49:34.615Z,321.91411
2023-05-12T18:54:36.007Z,296
2023-05-12T18:59:37.419Z,315.08434
2023-05-12T19:04:38.850Z,302.13953
2023-05-12T19:09:40.455Z,308.49704
2023-05-12T19:14:41.912Z,290.06742
2023-05-12T19:19:43.317Z,298.02299
2023-05-12T19:24:44.723Z,298.02299
2023-05-12T19:29:46.168Z,304.23392
2023-05-12T19:34:47.565Z,296
2023-05-12T19:39:48.984Z,292.0226
2023-05-12T19:44:50.426Z,304.23392
2023-05-12T19:49:51.855Z,308.49704
2023-05-12T19:54:53.225Z,298.02299
2023-05-12T19:59:54.607Z,288.13408
2023-05-12T20:04:56.004Z,294
2023-05-12T20:09:57.403Z,324.24691
2023-05-12T20:14:58.822Z,329
2023-05-12T20:20:00.226Z,317.33333
2023-05-12T20:25:01.692Z,317.33333
2023-05-12T20:30:03.169Z,336.35669
2023-05-12T20:35:04.958Z,338.87179
2023-05-12T20:40:06.346Z,331.42138
2023-05-12T20:45:07.762Z,331.42138
2023-05-12T20:50:09.162Z,317.33333
2023-05-12T20:55:10.617Z,321.91411
2023-05-12T21:00:11.981Z,329
2023-05-12T21:05:13.389Z,317.33333
2023-05-12T21:10:14.848Z,315.08434
2023-05-12T21:15:16.277Z,321.91411
2023-05-12T21:20:17.678Z,333.87342
2023-05-12T21:25:19.112Z,338.87179
2023-05-12T21:30:20.766Z,326.6087
2023-05-12T21:35:22.327Z,329
2023-05-12T21:40:23.759Z,312.86228
2023-05-12T21:45:25.154Z,329
2023-05-12T21:50:26.569Z,317.33333
2023-05-12T21:55:28.058Z,324.24691
2023-05-12T22:00:29.504Z,308.49704
2023-05-12T22:05:30.936Z,280.61202
2023-05-12T22:10:32.365Z,284.33149
2023-05-12T22:15:33.873Z,296
2023-05-12T22:20:35.285Z,296
2023-05-12T22:25:48.178Z,298.02299
2023-05-12T22:30:49.605Z,333.87342
2023-05-12T22:35:51.032Z,329
2023-05-12T22:40:52.434Z,338.87179
2023-05-12T22:45:53.849Z,354.66667
2023-05-12T22:50:55.374Z,377.80282
2023-05-12T22:55:56.812Z,421.51938
2023-05-12T23:00:58.317Z,390.37681
2023-05-12T23:05:59.968Z,346.61438
2023-05-12T23:11:01.466Z,354.66667
2023-05-12T23:16:02.976Z,365.91781
2023-05-12T23:21:04.393Z,349.26316
2023-05-12T23:26:05.831Z,354.66667
2023-05-12T23:31:07.357Z,363.04762
2023-05-12T23:36:08.769Z,425.25
2023-05-12T23:41:10.259Z,400.2963
2023-05-12T23:46:11.760Z,349.26316
2023-05-12T23:51:13.253Z,344
2023-05-12T23:56:14.673Z,344
